sensor_id;sensor_type;location;lat;lon;timestamp;P1;durP1;ratioP1;P2;durP2;ratioP2
15230;SDS011;32569;51.762;8.564;2022-09-17T00:01:09;5.93;;;3.83;;
15230;SDS011;32569;51.762;8.564;2022-09-17T00:03:41;6.47;;;4.30;;
15230;SDS011;32569;51.762;8.564;2022-09-17T00:06:09;6.63;;;3.30;;
15230;SDS011;32569;51.762;8.564;2022-09-17T00:08:37;3.77;;;3.03;;
15230;SDS011;32569;51.762;8.564;2022-09-17T00:11:06;9.83;;;4.07;;
15230;SDS011;32569;51.762;8.564;2022-09-17T00:13:34;7.13;;;3.70;;
15230;SDS011;32569;51.762;8.564;2022-09-17T00:16:02;6.90;;;3.07;;
15230;SDS011;32569;51.762;8.564;2022-09-17T00:18:29;6.13;;;3.33;;
15230;SDS011;32569;51.762;8.564;2022-09-17T00:20:56;9.07;;;3.50;;
15230;SDS011;32569;51.762;8.564;2022-09-17T00:23:22;4.57;;;3.10;;
15230;SDS011;32569;51.762;8.564;2022-09-17T00:25:49;6.00;;;3.20;;
15230;SDS011;32569;51.762;8.564;2022-09-17T00:28:16;7.47;;;3.60;;
15230;SDS011;32569;51.762;8.564;2022-09-17T00:30:43;4.87;;;2.80;;
15230;SDS011;32569;51.762;8.564;2022-09-17T00:33:12;6.73;;;3.73;;
15230;SDS011;32569;51.762;8.564;2022-09-17T00:35:41;5.33;;;2.87;;
15230;SDS011;32569;51.762;8.564;2022-09-17T00:38:08;6.00;;;3.10;;
15230;SDS011;32569;51.762;8.564;2022-09-17T00:40:35;7.60;;;3.63;;
15230;SDS011;32569;51.762;8.564;2022-09-17T00:43:01;6.63;;;3.67;;
15230;SDS011;32569;51.762;8.564;2022-09-17T00:45:28;8.53;;;3.87;;
15230;SDS011;32569;51.762;8.564;2022-09-17T00:47:57;7.83;;;3.40;;
15230;SDS011;32569;51.762;8.564;2022-09-17T00:50:27;7.43;;;3.47;;
15230;SDS011;32569;51.762;8.564;2022-09-17T00:52:58;9.63;;;3.30;;
15230;SDS011;32569;51.762;8.564;2022-09-17T00:55:27;9.43;;;3.00;;
15230;SDS011;32569;51.762;8.564;2022-09-17T00:57:57;9.90;;;3.33;;
15230;SDS011;32569;51.762;8.564;2022-09-17T01:00:27;11.53;;;3.90;;
15230;SDS011;32569;51.762;8.564;2022-09-17T01:02:55;6.80;;;3.13;;
15230;SDS011;32569;51.762;8.564;2022-09-17T01:05:25;8.50;;;3.60;;
15230;SDS011;32569;51.762;8.564;2022-09-17T01:08:01;7.10;;;3.60;;
15230;SDS011;32569;51.762;8.564;2022-09-17T01:10:41;9.57;;;3.07;;
15230;SDS011;32569;51.762;8.564;2022-09-17T01:13:34;8.27;;;3.73;;
15230;SDS011;32569;51.762;8.564;2022-09-17T01:16:08;6.67;;;3.83;;
15230;SDS011;32569;51.762;8.564;2022-09-17T01:18:46;7.53;;;3.83;;
15230;SDS011;32569;51.762;8.564;2022-09-17T01:21:34;8.10;;;3.70;;
15230;SDS011;32569;51.762;8.564;2022-09-17T01:24:26;9.83;;;4.20;;
15230;SDS011;32569;51.762;8.564;2022-09-17T01:27:32;9.83;;;4.20;;
15230;SDS011;32569;51.762;8.564;2022-09-17T01:33:25;9.63;;;3.90;;
15230;SDS011;32569;51.762;8.564;2022-09-17T01:35:58;9.83;;;4.83;;
15230;SDS011;32569;51.762;8.564;2022-09-17T01:38:37;9.50;;;3.70;;
15230;SDS011;32569;51.762;8.564;2022-09-17T01:41:12;11.47;;;4.00;;
15230;SDS011;32569;51.762;8.564;2022-09-17T01:43:47;13.13;;;4.20;;
15230;SDS011;32569;51.762;8.564;2022-09-17T01:46:23;12.13;;;3.93;;
15230;SDS011;32569;51.762;8.564;2022-09-17T01:48:57;6.27;;;3.50;;
15230;SDS011;32569;51.762;8.564;2022-09-17T01:51:26;10.30;;;3.10;;
15230;SDS011;32569;51.762;8.564;2022-09-17T01:53:57;10.40;;;3.83;;
15230;SDS011;32569;51.762;8.564;2022-09-17T01:56:27;11.07;;;3.27;;
15230;SDS011;32569;51.762;8.564;2022-09-17T01:59:00;11.80;;;3.13;;
15230;SDS011;32569;51.762;8.564;2022-09-17T02:01:33;10.17;;;3.07;;
15230;SDS011;32569;51.762;8.564;2022-09-17T02:04:04;8.07;;;3.07;;
15230;SDS011;32569;51.762;8.564;2022-09-17T02:06:35;5.57;;;2.40;;
15230;SDS011;32569;51.762;8.564;2022-09-17T02:09:05;9.87;;;3.10;;
15230;SDS011;32569;51.762;8.564;2022-09-17T02:11:38;8.00;;;3.00;;
15230;SDS011;32569;51.762;8.564;2022-09-17T02:14:08;8.50;;;3.20;;
15230;SDS011;32569;51.762;8.564;2022-09-17T02:16:40;10.30;;;3.00;;
15230;SDS011;32569;51.762;8.564;2022-09-17T02:19:14;9.47;;;2.70;;
15230;SDS011;32569;51.762;8.564;2022-09-17T02:21:44;5.43;;;2.20;;
15230;SDS011;32569;51.762;8.564;2022-09-17T02:24:17;6.80;;;2.73;;
15230;SDS011;32569;51.762;8.564;2022-09-17T02:26:49;8.33;;;2.43;;
15230;SDS011;32569;51.762;8.564;2022-09-17T02:29:22;8.50;;;2.77;;
15230;SDS011;32569;51.762;8.564;2022-09-17T02:31:55;11.90;;;3.23;;
15230;SDS011;32569;51.762;8.564;2022-09-17T02:34:22;8.23;;;2.77;;
15230;SDS011;32569;51.762;8.564;2022-09-17T02:36:50;12.20;;;3.00;;
15230;SDS011;32569;51.762;8.564;2022-09-17T02:39:17;9.33;;;2.90;;
15230;SDS011;32569;51.762;8.564;2022-09-17T02:41:45;5.80;;;2.63;;
15230;SDS011;32569;51.762;8.564;2022-09-17T02:44:20;8.60;;;2.87;;
15230;SDS011;32569;51.762;8.564;2022-09-17T02:46:58;6.77;;;2.90;;
15230;SDS011;32569;51.762;8.564;2022-09-17T02:49:40;8.30;;;2.43;;
15230;SDS011;32569;51.762;8.564;2022-09-17T02:52:24;7.80;;;2.80;;
15230;SDS011;32569;51.762;8.564;2022-09-17T02:55:00;11.07;;;2.90;;
15230;SDS011;32569;51.762;8.564;2022-09-17T02:57:38;11.03;;;2.70;;
15230;SDS011;32569;51.762;8.564;2022-09-17T03:00:11;11.70;;;3.00;;
15230;SDS011;32569;51.762;8.564;2022-09-17T03:02:42;11.37;;;3.13;;
15230;SDS011;32569;51.762;8.564;2022-09-17T03:05:15;8.83;;;3.13;;
15230;SDS011;32569;51.762;8.564;2022-09-17T03:07:44;12.03;;;3.53;;
15230;SDS011;32569;51.762;8.564;2022-09-17T03:10:11;9.63;;;2.87;;
15230;SDS011;32569;51.762;8.564;2022-09-17T03:12:37;9.50;;;3.03;;
15230;SDS011;32569;51.762;8.564;2022-09-17T03:15:05;12.87;;;3.27;;
15230;SDS011;32569;51.762;8.564;2022-09-17T03:17:33;7.43;;;3.70;;
15230;SDS011;32569;51.762;8.564;2022-09-17T03:20:01;8.57;;;2.50;;
15230;SDS011;32569;51.762;8.564;2022-09-17T03:22:28;7.93;;;2.83;;
15230;SDS011;32569;51.762;8.564;2022-09-17T03:24:55;9.47;;;2.83;;
15230;SDS011;32569;51.762;8.564;2022-09-17T03:27:21;13.13;;;3.60;;
15230;SDS011;32569;51.762;8.564;2022-09-17T03:29:48;10.00;;;2.83;;
15230;SDS011;32569;51.762;8.564;2022-09-17T03:32:14;11.07;;;3.00;;
15230;SDS011;32569;51.762;8.564;2022-09-17T03:34:41;10.53;;;4.07;;
15230;SDS011;32569;51.762;8.564;2022-09-17T03:37:09;9.60;;;2.50;;
15230;SDS011;32569;51.762;8.564;2022-09-17T03:39:36;6.07;;;2.90;;
15230;SDS011;32569;51.762;8.564;2022-09-17T03:42:02;7.67;;;3.27;;
15230;SDS011;32569;51.762;8.564;2022-09-17T03:44:30;10.33;;;2.90;;
15230;SDS011;32569;51.762;8.564;2022-09-17T03:46:57;9.97;;;2.80;;
15230;SDS011;32569;51.762;8.564;2022-09-17T03:49:24;13.00;;;2.90;;
15230;SDS011;32569;51.762;8.564;2022-09-17T03:51:50;9.70;;;3.30;;
15230;SDS011;32569;51.762;8.564;2022-09-17T03:54:18;15.57;;;4.07;;
15230;SDS011;32569;51.762;8.564;2022-09-17T03:56:45;10.03;;;2.80;;
15230;SDS011;32569;51.762;8.564;2022-09-17T03:59:12;11.13;;;3.20;;
15230;SDS011;32569;51.762;8.564;2022-09-17T04:01:38;8.30;;;3.00;;
15230;SDS011;32569;51.762;8.564;2022-09-17T04:04:05;8.90;;;3.03;;
15230;SDS011;32569;51.762;8.564;2022-09-17T04:06:32;12.27;;;3.90;;
15230;SDS011;32569;51.762;8.564;2022-09-17T04:08:59;14.60;;;3.10;;
15230;SDS011;32569;51.762;8.564;2022-09-17T04:11:30;9.60;;;3.17;;
15230;SDS011;32569;51.762;8.564;2022-09-17T04:13:56;10.43;;;3.00;;
15230;SDS011;32569;51.762;8.564;2022-09-17T04:16:23;9.53;;;3.60;;
15230;SDS011;32569;51.762;8.564;2022-09-17T04:18:50;11.07;;;3.40;;
15230;SDS011;32569;51.762;8.564;2022-09-17T04:21:16;7.27;;;3.00;;
15230;SDS011;32569;51.762;8.564;2022-09-17T04:23:43;12.63;;;4.03;;
15230;SDS011;32569;51.762;8.564;2022-09-17T04:26:10;15.23;;;3.40;;
15230;SDS011;32569;51.762;8.564;2022-09-17T04:28:38;9.50;;;3.60;;
15230;SDS011;32569;51.762;8.564;2022-09-17T04:31:05;8.13;;;3.33;;
15230;SDS011;32569;51.762;8.564;2022-09-17T04:33:31;11.00;;;2.87;;
15230;SDS011;32569;51.762;8.564;2022-09-17T04:35:58;8.70;;;2.83;;
15230;SDS011;32569;51.762;8.564;2022-09-17T04:38:25;7.93;;;3.10;;
15230;SDS011;32569;51.762;8.564;2022-09-17T04:40:51;6.63;;;3.13;;
15230;SDS011;32569;51.762;8.564;2022-09-17T04:43:21;10.70;;;3.40;;
15230;SDS011;32569;51.762;8.564;2022-09-17T04:45:49;11.23;;;2.97;;
15230;SDS011;32569;51.762;8.564;2022-09-17T04:48:16;12.97;;;3.83;;
15230;SDS011;32569;51.762;8.564;2022-09-17T04:50:43;12.37;;;3.63;;
15230;SDS011;32569;51.762;8.564;2022-09-17T04:53:10;9.00;;;2.70;;
15230;SDS011;32569;51.762;8.564;2022-09-17T04:55:37;11.03;;;3.07;;
15230;SDS011;32569;51.762;8.564;2022-09-17T04:58:03;9.07;;;2.80;;
15230;SDS011;32569;51.762;8.564;2022-09-17T05:00:30;7.70;;;3.37;;
15230;SDS011;32569;51.762;8.564;2022-09-17T05:02:58;11.37;;;3.30;;
15230;SDS011;32569;51.762;8.564;2022-09-17T05:05:25;9.37;;;3.30;;
15230;SDS011;32569;51.762;8.564;2022-09-17T05:07:51;11.63;;;2.90;;
15230;SDS011;32569;51.762;8.564;2022-09-17T05:10:19;10.27;;;3.87;;
15230;SDS011;32569;51.762;8.564;2022-09-17T05:12:47;10.73;;;3.07;;
15230;SDS011;32569;51.762;8.564;2022-09-17T05:15:15;9.17;;;2.50;;
15230;SDS011;32569;51.762;8.564;2022-09-17T05:17:42;6.87;;;2.77;;
15230;SDS011;32569;51.762;8.564;2022-09-17T05:20:10;9.83;;;2.80;;
15230;SDS011;32569;51.762;8.564;2022-09-17T05:22:41;7.50;;;2.63;;
15230;SDS011;32569;51.762;8.564;2022-09-17T05:25:08;13.20;;;3.27;;
15230;SDS011;32569;51.762;8.564;2022-09-17T05:27:35;8.47;;;3.00;;
15230;SDS011;32569;51.762;8.564;2022-09-17T05:30:02;9.97;;;2.67;;
15230;SDS011;32569;51.762;8.564;2022-09-17T05:32:29;7.50;;;2.70;;
15230;SDS011;32569;51.762;8.564;2022-09-17T05:34:56;12.40;;;2.50;;
15230;SDS011;32569;51.762;8.564;2022-09-17T05:37:24;7.73;;;2.67;;
15230;SDS011;32569;51.762;8.564;2022-09-17T05:39:51;7.73;;;2.27;;
15230;SDS011;32569;51.762;8.564;2022-09-17T05:42:17;9.83;;;2.87;;
15230;SDS011;32569;51.762;8.564;2022-09-17T05:44:44;9.00;;;2.40;;
15230;SDS011;32569;51.762;8.564;2022-09-17T05:47:11;10.17;;;2.57;;
15230;SDS011;32569;51.762;8.564;2022-09-17T05:49:37;10.40;;;2.97;;
15230;SDS011;32569;51.762;8.564;2022-09-17T05:52:04;8.60;;;2.80;;
15230;SDS011;32569;51.762;8.564;2022-09-17T05:54:32;7.47;;;2.73;;
15230;SDS011;32569;51.762;8.564;2022-09-17T05:56:59;8.10;;;2.57;;
15230;SDS011;32569;51.762;8.564;2022-09-17T05:59:26;13.83;;;3.33;;
15230;SDS011;32569;51.762;8.564;2022-09-17T06:01:53;8.40;;;3.77;;
15230;SDS011;32569;51.762;8.564;2022-09-17T06:04:19;6.07;;;2.67;;
15230;SDS011;32569;51.762;8.564;2022-09-17T06:06:46;7.70;;;2.47;;
15230;SDS011;32569;51.762;8.564;2022-09-17T06:09:12;9.27;;;2.70;;
15230;SDS011;32569;51.762;8.564;2022-09-17T06:11:40;10.63;;;2.57;;
15230;SDS011;32569;51.762;8.564;2022-09-17T06:14:07;8.90;;;2.73;;
15230;SDS011;32569;51.762;8.564;2022-09-17T06:16:34;11.17;;;2.60;;
15230;SDS011;32569;51.762;8.564;2022-09-17T06:19:01;7.43;;;3.27;;
15230;SDS011;32569;51.762;8.564;2022-09-17T06:24:57;9.30;;;3.20;;
15230;SDS011;32569;51.762;8.564;2022-09-17T06:27:30;11.90;;;3.13;;
15230;SDS011;32569;51.762;8.564;2022-09-17T06:30:06;11.43;;;3.13;;
15230;SDS011;32569;51.762;8.564;2022-09-17T06:32:45;8.60;;;2.47;;
15230;SDS011;32569;51.762;8.564;2022-09-17T06:38:30;8.07;;;2.83;;
15230;SDS011;32569;51.762;8.564;2022-09-17T06:44:41;9.00;;;3.50;;
15230;SDS011;32569;51.762;8.564;2022-09-17T06:47:11;8.30;;;2.73;;
15230;SDS011;32569;51.762;8.564;2022-09-17T06:49:38;5.80;;;2.37;;
15230;SDS011;32569;51.762;8.564;2022-09-17T06:52:53;9.33;;;2.60;;
15230;SDS011;32569;51.762;8.564;2022-09-17T06:59:03;6.67;;;2.50;;
15230;SDS011;32569;51.762;8.564;2022-09-17T07:01:31;6.30;;;2.67;;
15230;SDS011;32569;51.762;8.564;2022-09-17T07:03:58;9.10;;;2.60;;
15230;SDS011;32569;51.762;8.564;2022-09-17T07:06:24;12.17;;;2.50;;
15230;SDS011;32569;51.762;8.564;2022-09-17T07:08:51;6.60;;;2.33;;
15230;SDS011;32569;51.762;8.564;2022-09-17T07:11:18;5.77;;;1.80;;
15230;SDS011;32569;51.762;8.564;2022-09-17T07:13:44;6.07;;;2.10;;
15230;SDS011;32569;51.762;8.564;2022-09-17T07:16:11;6.10;;;2.03;;
15230;SDS011;32569;51.762;8.564;2022-09-17T07:18:39;7.23;;;2.70;;
15230;SDS011;32569;51.762;8.564;2022-09-17T07:21:08;7.60;;;3.00;;
15230;SDS011;32569;51.762;8.564;2022-09-17T07:23:36;6.67;;;2.10;;
15230;SDS011;32569;51.762;8.564;2022-09-17T07:26:03;7.80;;;2.50;;
15230;SDS011;32569;51.762;8.564;2022-09-17T07:28:31;5.17;;;2.33;;
15230;SDS011;32569;51.762;8.564;2022-09-17T07:30:58;9.13;;;2.53;;
15230;SDS011;32569;51.762;8.564;2022-09-17T07:33:28;6.90;;;2.10;;
15230;SDS011;32569;51.762;8.564;2022-09-17T07:35:57;9.93;;;2.00;;
15230;SDS011;32569;51.762;8.564;2022-09-17T07:38:25;6.33;;;2.00;;
15230;SDS011;32569;51.762;8.564;2022-09-17T07:40:56;7.53;;;2.10;;
15230;SDS011;32569;51.762;8.564;2022-09-17T07:43:23;6.40;;;2.47;;
15230;SDS011;32569;51.762;8.564;2022-09-17T07:45:51;6.33;;;1.90;;
15230;SDS011;32569;51.762;8.564;2022-09-17T07:48:18;7.67;;;3.03;;
15230;SDS011;32569;51.762;8.564;2022-09-17T07:50:46;8.17;;;1.97;;
15230;SDS011;32569;51.762;8.564;2022-09-17T07:53:14;5.53;;;2.10;;
15230;SDS011;32569;51.762;8.564;2022-09-17T07:55:41;5.83;;;2.23;;
15230;SDS011;32569;51.762;8.564;2022-09-17T07:58:08;7.93;;;1.83;;
15230;SDS011;32569;51.762;8.564;2022-09-17T08:00:35;10.03;;;2.60;;
15230;SDS011;32569;51.762;8.564;2022-09-17T08:03:01;6.77;;;2.50;;
15230;SDS011;32569;51.762;8.564;2022-09-17T08:05:28;8.37;;;2.10;;
15230;SDS011;32569;51.762;8.564;2022-09-17T08:07:57;4.30;;;1.90;;
15230;SDS011;32569;51.762;8.564;2022-09-17T08:10:25;5.37;;;2.00;;
15230;SDS011;32569;51.762;8.564;2022-09-17T08:12:53;7.90;;;2.07;;
15230;SDS011;32569;51.762;8.564;2022-09-17T08:15:21;7.07;;;1.90;;
15230;SDS011;32569;51.762;8.564;2022-09-17T08:17:49;6.77;;;1.63;;
15230;SDS011;32569;51.762;8.564;2022-09-17T08:20:16;6.40;;;1.73;;
15230;SDS011;32569;51.762;8.564;2022-09-17T08:22:44;7.50;;;2.47;;
15230;SDS011;32569;51.762;8.564;2022-09-17T08:25:10;7.90;;;1.80;;
15230;SDS011;32569;51.762;8.564;2022-09-17T08:27:38;5.50;;;1.70;;
15230;SDS011;32569;51.762;8.564;2022-09-17T08:30:06;7.40;;;1.80;;
15230;SDS011;32569;51.762;8.564;2022-09-17T08:32:33;5.87;;;1.57;;
15230;SDS011;32569;51.762;8.564;2022-09-17T08:35:00;11.27;;;2.73;;
15230;SDS011;32569;51.762;8.564;2022-09-17T08:37:27;5.87;;;1.90;;
15230;SDS011;32569;51.762;8.564;2022-09-17T08:39:54;5.23;;;2.00;;
15230;SDS011;32569;51.762;8.564;2022-09-17T08:42:23;3.77;;;1.90;;
15230;SDS011;32569;51.762;8.564;2022-09-17T08:44:58;4.10;;;1.70;;
15230;SDS011;32569;51.762;8.564;2022-09-17T08:47:28;3.63;;;1.73;;
15230;SDS011;32569;51.762;8.564;2022-09-17T08:50:00;9.57;;;2.30;;
15230;SDS011;32569;51.762;8.564;2022-09-17T08:55:29;4.70;;;1.87;;
15230;SDS011;32569;51.762;8.564;2022-09-17T08:58:22;4.83;;;2.03;;
15230;SDS011;32569;51.762;8.564;2022-09-17T09:01:01;5.37;;;1.93;;
15230;SDS011;32569;51.762;8.564;2022-09-17T09:03:37;6.23;;;2.27;;
15230;SDS011;32569;51.762;8.564;2022-09-17T09:06:11;7.30;;;1.73;;
15230;SDS011;32569;51.762;8.564;2022-09-17T09:08:40;7.60;;;1.80;;
15230;SDS011;32569;51.762;8.564;2022-09-17T09:11:10;6.83;;;1.83;;
15230;SDS011;32569;51.762;8.564;2022-09-17T09:13:40;7.40;;;2.00;;
15230;SDS011;32569;51.762;8.564;2022-09-17T09:16:13;9.17;;;2.17;;
15230;SDS011;32569;51.762;8.564;2022-09-17T09:18:42;5.57;;;2.30;;
15230;SDS011;32569;51.762;8.564;2022-09-17T09:21:13;6.60;;;2.00;;
15230;SDS011;32569;51.762;8.564;2022-09-17T09:23:51;5.43;;;2.10;;
15230;SDS011;32569;51.762;8.564;2022-09-17T09:26:21;3.97;;;2.00;;
15230;SDS011;32569;51.762;8.564;2022-09-17T09:29:02;9.67;;;2.27;;
15230;SDS011;32569;51.762;8.564;2022-09-17T09:31:39;5.07;;;2.07;;
15230;SDS011;32569;51.762;8.564;2022-09-17T09:34:12;3.80;;;1.80;;
15230;SDS011;32569;51.762;8.564;2022-09-17T09:36:40;7.00;;;2.00;;
15230;SDS011;32569;51.762;8.564;2022-09-17T09:39:10;4.97;;;2.13;;
15230;SDS011;32569;51.762;8.564;2022-09-17T09:41:42;7.60;;;2.00;;
15230;SDS011;32569;51.762;8.564;2022-09-17T09:44:10;10.10;;;4.17;;
15230;SDS011;32569;51.762;8.564;2022-09-17T09:46:46;6.00;;;2.30;;
15230;SDS011;32569;51.762;8.564;2022-09-17T09:49:25;5.50;;;1.83;;
15230;SDS011;32569;51.762;8.564;2022-09-17T09:52:04;3.97;;;2.07;;
15230;SDS011;32569;51.762;8.564;2022-09-17T09:54:46;3.73;;;1.93;;
15230;SDS011;32569;51.762;8.564;2022-09-17T09:57:29;5.70;;;2.03;;
15230;SDS011;32569;51.762;8.564;2022-09-17T10:00:22;5.97;;;1.63;;
15230;SDS011;32569;51.762;8.564;2022-09-17T10:02:55;6.87;;;2.03;;
15230;SDS011;32569;51.762;8.564;2022-09-17T10:05:26;4.47;;;1.60;;
15230;SDS011;32569;51.762;8.564;2022-09-17T10:07:52;3.37;;;1.47;;
15230;SDS011;32569;51.762;8.564;2022-09-17T10:10:19;4.93;;;2.03;;
15230;SDS011;32569;51.762;8.564;2022-09-17T10:12:46;6.30;;;1.93;;
15230;SDS011;32569;51.762;8.564;2022-09-17T10:15:22;3.80;;;1.60;;
15230;SDS011;32569;51.762;8.564;2022-09-17T10:17:59;5.00;;;1.63;;
15230;SDS011;32569;51.762;8.564;2022-09-17T10:20:42;7.33;;;1.57;;
15230;SDS011;32569;51.762;8.564;2022-09-17T10:23:14;5.27;;;1.80;;
15230;SDS011;32569;51.762;8.564;2022-09-17T10:25:42;6.00;;;2.30;;
15230;SDS011;32569;51.762;8.564;2022-09-17T10:28:19;6.77;;;3.00;;
15230;SDS011;32569;51.762;8.564;2022-09-17T10:30:56;7.03;;;3.00;;
15230;SDS011;32569;51.762;8.564;2022-09-17T10:33:26;6.33;;;1.90;;
15230;SDS011;32569;51.762;8.564;2022-09-17T10:35:56;5.27;;;2.37;;
15230;SDS011;32569;51.762;8.564;2022-09-17T10:38:26;5.77;;;2.30;;
15230;SDS011;32569;51.762;8.564;2022-09-17T10:41:06;4.33;;;1.40;;
15230;SDS011;32569;51.762;8.564;2022-09-17T10:43:35;4.73;;;1.80;;
15230;SDS011;32569;51.762;8.564;2022-09-17T10:46:02;5.33;;;2.00;;
15230;SDS011;32569;51.762;8.564;2022-09-17T10:48:32;5.30;;;1.70;;
15230;SDS011;32569;51.762;8.564;2022-09-17T10:51:03;3.47;;;1.30;;
15230;SDS011;32569;51.762;8.564;2022-09-17T10:53:53;3.57;;;1.40;;
15230;SDS011;32569;51.762;8.564;2022-09-17T10:56:33;5.17;;;2.03;;
15230;SDS011;32569;51.762;8.564;2022-09-17T10:59:05;6.23;;;1.70;;
15230;SDS011;32569;51.762;8.564;2022-09-17T11:01:57;4.53;;;2.47;;
15230;SDS011;32569;51.762;8.564;2022-09-17T11:04:38;3.87;;;1.77;;
15230;SDS011;32569;51.762;8.564;2022-09-17T11:07:27;4.90;;;2.10;;
15230;SDS011;32569;51.762;8.564;2022-09-17T11:10:10;6.07;;;2.53;;
15230;SDS011;32569;51.762;8.564;2022-09-17T11:12:48;2.43;;;1.20;;
15230;SDS011;32569;51.762;8.564;2022-09-17T11:15:29;5.57;;;2.17;;
15230;SDS011;32569;51.762;8.564;2022-09-17T11:24:11;3.33;;;1.33;;
15230;SDS011;32569;51.762;8.564;2022-09-17T11:26:52;3.53;;;1.83;;
15230;SDS011;32569;51.762;8.564;2022-09-17T11:29:35;12.57;;;8.57;;
15230;SDS011;32569;51.762;8.564;2022-09-17T11:32:13;6.43;;;3.30;;
15230;SDS011;32569;51.762;8.564;2022-09-17T11:34:52;5.97;;;1.53;;
15230;SDS011;32569;51.762;8.564;2022-09-17T11:37:29;5.00;;;2.63;;
15230;SDS011;32569;51.762;8.564;2022-09-17T11:40:02;5.53;;;1.23;;
15230;SDS011;32569;51.762;8.564;2022-09-17T11:42:37;5.83;;;1.30;;
15230;SDS011;32569;51.762;8.564;2022-09-17T11:45:10;4.93;;;2.37;;
15230;SDS011;32569;51.762;8.564;2022-09-17T11:47:43;7.40;;;3.00;;
15230;SDS011;32569;51.762;8.564;2022-09-17T11:50:16;4.17;;;1.37;;
15230;SDS011;32569;51.762;8.564;2022-09-17T11:52:50;4.30;;;1.33;;
15230;SDS011;32569;51.762;8.564;2022-09-17T11:55:34;3.27;;;0.90;;
15230;SDS011;32569;51.762;8.564;2022-09-17T11:58:08;1.97;;;1.00;;
15230;SDS011;32569;51.762;8.564;2022-09-17T12:00:41;1.70;;;0.80;;
15230;SDS011;32569;51.762;8.564;2022-09-17T12:03:15;2.03;;;0.90;;
15230;SDS011;32569;51.762;8.564;2022-09-17T12:05:50;1.97;;;1.00;;
15230;SDS011;32569;51.762;8.564;2022-09-17T12:08:20;5.63;;;2.53;;
15230;SDS011;32569;51.762;8.564;2022-09-17T12:10:54;2.67;;;1.60;;
15230;SDS011;32569;51.762;8.564;2022-09-17T12:13:29;2.03;;;0.90;;
15230;SDS011;32569;51.762;8.564;2022-09-17T12:16:03;3.40;;;1.10;;
15230;SDS011;32569;51.762;8.564;2022-09-17T12:18:43;1.60;;;1.27;;
15230;SDS011;32569;51.762;8.564;2022-09-17T12:21:15;3.30;;;1.60;;
15230;SDS011;32569;51.762;8.564;2022-09-17T12:23:47;2.20;;;1.00;;
15230;SDS011;32569;51.762;8.564;2022-09-17T12:29:35;2.63;;;1.90;;
15230;SDS011;32569;51.762;8.564;2022-09-17T12:32:19;4.00;;;1.20;;
15230;SDS011;32569;51.762;8.564;2022-09-17T12:34:57;2.27;;;1.20;;
15230;SDS011;32569;51.762;8.564;2022-09-17T12:37:31;2.70;;;1.67;;
15230;SDS011;32569;51.762;8.564;2022-09-17T12:40:10;1.77;;;1.10;;
15230;SDS011;32569;51.762;8.564;2022-09-17T12:42:51;1.97;;;1.17;;
15230;SDS011;32569;51.762;8.564;2022-09-17T12:45:34;3.33;;;1.47;;
15230;SDS011;32569;51.762;8.564;2022-09-17T12:48:18;2.10;;;1.27;;
15230;SDS011;32569;51.762;8.564;2022-09-17T12:50:54;3.57;;;1.47;;
15230;SDS011;32569;51.762;8.564;2022-09-17T12:53:32;1.87;;;1.30;;
15230;SDS011;32569;51.762;8.564;2022-09-17T12:56:08;2.57;;;1.30;;
15230;SDS011;32569;51.762;8.564;2022-09-17T12:58:48;6.03;;;1.57;;
15230;SDS011;32569;51.762;8.564;2022-09-17T13:01:34;5.37;;;2.23;;
15230;SDS011;32569;51.762;8.564;2022-09-17T13:04:10;2.27;;;1.40;;
15230;SDS011;32569;51.762;8.564;2022-09-17T13:06:53;2.70;;;1.17;;
15230;SDS011;32569;51.762;8.564;2022-09-17T13:12:35;1.33;;;0.93;;
15230;SDS011;32569;51.762;8.564;2022-09-17T13:15:31;1.37;;;1.07;;
15230;SDS011;32569;51.762;8.564;2022-09-17T13:18:06;2.17;;;1.10;;
15230;SDS011;32569;51.762;8.564;2022-09-17T13:20:41;3.33;;;2.20;;
15230;SDS011;32569;51.762;8.564;2022-09-17T13:23:22;1.57;;;1.10;;
15230;SDS011;32569;51.762;8.564;2022-09-17T13:25:56;3.43;;;1.30;;
15230;SDS011;32569;51.762;8.564;2022-09-17T13:28:36;2.77;;;1.10;;
15230;SDS011;32569;51.762;8.564;2022-09-17T13:31:06;3.93;;;1.73;;
15230;SDS011;32569;51.762;8.564;2022-09-17T13:33:49;6.47;;;2.30;;
15230;SDS011;32569;51.762;8.564;2022-09-17T13:36:37;4.03;;;1.77;;
15230;SDS011;32569;51.762;8.564;2022-09-17T13:39:07;2.30;;;1.10;;
15230;SDS011;32569;51.762;8.564;2022-09-17T13:41:36;5.37;;;2.30;;
15230;SDS011;32569;51.762;8.564;2022-09-17T13:44:06;5.13;;;1.33;;
15230;SDS011;32569;51.762;8.564;2022-09-17T13:46:37;2.63;;;1.10;;
15230;SDS011;32569;51.762;8.564;2022-09-17T13:49:10;1.57;;;1.07;;
15230;SDS011;32569;51.762;8.564;2022-09-17T13:51:43;4.60;;;1.00;;
15230;SDS011;32569;51.762;8.564;2022-09-17T13:54:16;2.67;;;1.50;;
15230;SDS011;32569;51.762;8.564;2022-09-17T13:56:46;1.67;;;1.00;;
15230;SDS011;32569;51.762;8.564;2022-09-17T13:59:16;1.80;;;0.93;;
15230;SDS011;32569;51.762;8.564;2022-09-17T14:01:56;1.17;;;0.80;;
15230;SDS011;32569;51.762;8.564;2022-09-17T14:04:44;2.20;;;0.80;;
15230;SDS011;32569;51.762;8.564;2022-09-17T14:07:32;1.10;;;1.00;;
15230;SDS011;32569;51.762;8.564;2022-09-17T14:10:01;1.10;;;0.80;;
15230;SDS011;32569;51.762;8.564;2022-09-17T14:12:49;2.03;;;1.30;;
15230;SDS011;32569;51.762;8.564;2022-09-17T14:15:32;3.37;;;1.50;;
15230;SDS011;32569;51.762;8.564;2022-09-17T14:18:31;3.73;;;1.23;;
15230;SDS011;32569;51.762;8.564;2022-09-17T14:21:12;1.73;;;1.63;;
15230;SDS011;32569;51.762;8.564;2022-09-17T14:23:43;5.80;;;2.67;;
15230;SDS011;32569;51.762;8.564;2022-09-17T14:26:13;6.63;;;4.10;;
15230;SDS011;32569;51.762;8.564;2022-09-17T14:28:46;5.53;;;1.90;;
15230;SDS011;32569;51.762;8.564;2022-09-17T14:31:19;5.40;;;2.20;;
15230;SDS011;32569;51.762;8.564;2022-09-17T14:33:54;4.40;;;1.50;;
15230;SDS011;32569;51.762;8.564;2022-09-17T14:36:20;3.67;;;1.87;;
15230;SDS011;32569;51.762;8.564;2022-09-17T14:38:49;4.03;;;2.00;;
15230;SDS011;32569;51.762;8.564;2022-09-17T14:41:19;5.03;;;2.20;;
15230;SDS011;32569;51.762;8.564;2022-09-17T14:43:48;2.87;;;1.13;;
15230;SDS011;32569;51.762;8.564;2022-09-17T14:46:18;1.83;;;1.10;;
15230;SDS011;32569;51.762;8.564;2022-09-17T14:48:47;1.97;;;1.30;;
15230;SDS011;32569;51.762;8.564;2022-09-17T14:51:26;2.83;;;1.53;;
15230;SDS011;32569;51.762;8.564;2022-09-17T14:54:06;5.10;;;1.57;;
15230;SDS011;32569;51.762;8.564;2022-09-17T14:56:38;1.90;;;1.23;;
15230;SDS011;32569;51.762;8.564;2022-09-17T14:59:20;2.50;;;1.93;;
15230;SDS011;32569;51.762;8.564;2022-09-17T15:01:50;3.87;;;1.40;;
15230;SDS011;32569;51.762;8.564;2022-09-17T15:04:19;6.47;;;1.53;;
15230;SDS011;32569;51.762;8.564;2022-09-17T15:06:49;4.23;;;1.63;;
15230;SDS011;32569;51.762;8.564;2022-09-17T15:09:16;2.37;;;1.53;;
15230;SDS011;32569;51.762;8.564;2022-09-17T15:11:44;4.00;;;1.97;;
15230;SDS011;32569;51.762;8.564;2022-09-17T15:14:14;3.17;;;1.53;;
15230;SDS011;32569;51.762;8.564;2022-09-17T15:16:47;4.37;;;2.07;;
15230;SDS011;32569;51.762;8.564;2022-09-17T15:19:18;5.57;;;1.70;;
15230;SDS011;32569;51.762;8.564;2022-09-17T15:21:50;4.47;;;1.53;;
15230;SDS011;32569;51.762;8.564;2022-09-17T15:24:22;10.60;;;4.57;;
15230;SDS011;32569;51.762;8.564;2022-09-17T15:26:58;5.03;;;1.90;;
15230;SDS011;32569;51.762;8.564;2022-09-17T15:29:32;10.07;;;4.37;;
15230;SDS011;32569;51.762;8.564;2022-09-17T15:32:01;5.50;;;1.40;;
15230;SDS011;32569;51.762;8.564;2022-09-17T15:34:29;4.23;;;2.27;;
15230;SDS011;32569;51.762;8.564;2022-09-17T15:37:03;5.00;;;2.07;;
15230;SDS011;32569;51.762;8.564;2022-09-17T15:39:36;3.73;;;1.40;;
15230;SDS011;32569;51.762;8.564;2022-09-17T15:42:13;5.67;;;1.50;;
15230;SDS011;32569;51.762;8.564;2022-09-17T15:44:45;3.13;;;1.20;;
15230;SDS011;32569;51.762;8.564;2022-09-17T15:50:17;3.40;;;1.30;;